ZKDAY RPSB-RPVE
Flight info
| Callsign | ZKDAY |
|---|---|
| Flight time | 1h 18m |
| Altitude | 4000 |
| Route | ATRIA DCT ROX TR15 KLO KLO7A |
| Aircraft | C172/L-SFG/C |
Departure
| Time | 2026-04-27 13:31 |
|---|---|
| Airport | Bantayan Airport (RPSB) |
Arrival
| Time | 2026-04-27 14:50 |
|---|---|
| Airport | Godofredo P. Ramos Airport (RPVE) |
| Time | Latitude | Longitude | Altitude | Speed | Heading |
|---|---|---|---|---|---|
| 2026-04-27 13:24 | 11.15765 | 123.78762 | 84 ft | 0 kts | 63° |
| 2026-04-27 13:27 | 11.15770 | 123.78765 | 84 ft | 0 kts | 355° |
| 2026-04-27 13:28 | 11.15772 | 123.78764 | 83 ft | 1 kts | 329° |
| 2026-04-27 13:28 | 11.15766 | 123.78747 | 87 ft | 4 kts | 221° |
| 2026-04-27 13:28 | 11.15742 | 123.78724 | 83 ft | 5 kts | 231° |
| 2026-04-27 13:29 | 11.15736 | 123.78716 | 86 ft | 1 kts | 239° |
| 2026-04-27 13:29 | 11.15735 | 123.78709 | 83 ft | 0 kts | 267° |
| 2026-04-27 13:29 | 11.15734 | 123.78701 | 83 ft | 0 kts | 259° |
| 2026-04-27 13:29 | 11.15733 | 123.78699 | 83 ft | 1 kts | 252° |
| 2026-04-27 13:30 | 11.15742 | 123.78674 | 85 ft | 5 kts | 337° |
| 2026-04-27 13:30 | 11.15829 | 123.78638 | 79 ft | 37 kts | 339° |
| 2026-04-27 13:30 | 11.16213 | 123.78476 | 94 ft | 75 kts | 346° |
| 2026-04-27 13:30 | 11.16693 | 123.78275 | 285 ft | 75 kts | 346° |
| 2026-04-27 13:31 | 11.17251 | 123.78044 | 375 ft | 94 kts | 343° |
| 2026-04-27 13:31 | 11.17924 | 123.77881 | 481 ft | 106 kts | 355° |
| 2026-04-27 13:31 | 11.18551 | 123.77472 | 656 ft | 114 kts | 309° |
| 2026-04-27 13:31 | 11.18736 | 123.76705 | 798 ft | 114 kts | 262° |
| 2026-04-27 13:32 | 11.18454 | 123.75960 | 975 ft | 113 kts | 240° |
| 2026-04-27 13:32 | 11.18082 | 123.75256 | 1161 ft | 113 kts | 241° |
| 2026-04-27 13:32 | 11.17987 | 123.74470 | 1326 ft | 114 kts | 284° |
| 2026-04-27 13:32 | 11.18182 | 123.73688 | 1490 ft | 114 kts | 288° |
| 2026-04-27 13:33 | 11.18398 | 123.72912 | 1670 ft | 114 kts | 288° |
| 2026-04-27 13:33 | 11.18612 | 123.72130 | 1843 ft | 115 kts | 288° |
| 2026-04-27 13:33 | 11.18818 | 123.71341 | 2018 ft | 116 kts | 285° |
| 2026-04-27 13:33 | 11.19017 | 123.70542 | 2188 ft | 117 kts | 286° |
| 2026-04-27 13:34 | 11.19215 | 123.69738 | 2351 ft | 117 kts | 286° |
| 2026-04-27 13:34 | 11.19409 | 123.68940 | 2511 ft | 116 kts | 286° |
| 2026-04-27 13:34 | 11.19599 | 123.68149 | 2675 ft | 114 kts | 285° |
| 2026-04-27 13:34 | 11.19787 | 123.67367 | 2856 ft | 114 kts | 283° |
| 2026-04-27 13:35 | 11.19988 | 123.66583 | 3023 ft | 114 kts | 285° |
| 2026-04-27 13:35 | 11.20182 | 123.65800 | 3183 ft | 114 kts | 285° |
| 2026-04-27 13:35 | 11.20367 | 123.65017 | 3345 ft | 113 kts | 285° |
| 2026-04-27 13:35 | 11.20548 | 123.64238 | 3519 ft | 113 kts | 284° |
| 2026-04-27 13:36 | 11.20733 | 123.63459 | 3686 ft | 113 kts | 283° |
| 2026-04-27 13:36 | 11.20918 | 123.62685 | 3852 ft | 112 kts | 284° |
| 2026-04-27 13:36 | 11.21103 | 123.61910 | 3978 ft | 117 kts | 284° |
| 2026-04-27 13:36 | 11.21310 | 123.61071 | 4000 ft | 127 kts | 284° |
| 2026-04-27 13:37 | 11.21530 | 123.60172 | 3994 ft | 134 kts | 284° |
| 2026-04-27 13:37 | 11.21758 | 123.59239 | 3993 ft | 137 kts | 284° |
| 2026-04-27 13:37 | 11.21983 | 123.58315 | 3991 ft | 129 kts | 285° |
| 2026-04-27 13:37 | 11.22187 | 123.57457 | 3994 ft | 120 kts | 284° |
| 2026-04-27 13:38 | 11.22381 | 123.56651 | 4005 ft | 115 kts | 284° |
| 2026-04-27 13:38 | 11.22569 | 123.55865 | 4005 ft | 112 kts | 284° |
| 2026-04-27 13:38 | 11.22752 | 123.55101 | 4009 ft | 110 kts | 285° |
| 2026-04-27 13:38 | 11.22933 | 123.54340 | 4015 ft | 112 kts | 285° |
| 2026-04-27 13:39 | 11.23123 | 123.53554 | 4013 ft | 116 kts | 286° |
| 2026-04-27 13:39 | 11.23320 | 123.52740 | 4014 ft | 120 kts | 285° |
| 2026-04-27 13:39 | 11.23523 | 123.51906 | 4013 ft | 123 kts | 284° |
| 2026-04-27 13:39 | 11.23728 | 123.51054 | 4008 ft | 124 kts | 284° |
| 2026-04-27 13:40 | 11.23934 | 123.50196 | 4011 ft | 126 kts | 284° |
| 2026-04-27 13:40 | 11.24143 | 123.49330 | 4013 ft | 127 kts | 285° |
| 2026-04-27 13:40 | 11.24353 | 123.48455 | 4007 ft | 128 kts | 285° |
| 2026-04-27 13:40 | 11.24564 | 123.47580 | 4003 ft | 127 kts | 285° |
| 2026-04-27 13:41 | 11.24773 | 123.46711 | 4000 ft | 126 kts | 284° |
| 2026-04-27 13:41 | 11.24980 | 123.45848 | 4006 ft | 125 kts | 285° |
| 2026-04-27 13:41 | 11.25187 | 123.44984 | 4011 ft | 126 kts | 285° |
| 2026-04-27 13:41 | 11.25397 | 123.44115 | 4009 ft | 126 kts | 284° |
| 2026-04-27 13:42 | 11.25605 | 123.43244 | 4006 ft | 126 kts | 284° |
| 2026-04-27 13:42 | 11.25814 | 123.42376 | 4007 ft | 126 kts | 285° |
| 2026-04-27 13:42 | 11.26022 | 123.41507 | 4010 ft | 126 kts | 285° |
| 2026-04-27 13:42 | 11.26232 | 123.40637 | 4009 ft | 127 kts | 285° |
| 2026-04-27 13:43 | 11.26441 | 123.39765 | 4012 ft | 127 kts | 285° |
| 2026-04-27 13:43 | 11.26650 | 123.38895 | 4007 ft | 126 kts | 285° |
| 2026-04-27 13:43 | 11.26859 | 123.38025 | 4010 ft | 126 kts | 284° |
| 2026-04-27 13:43 | 11.27067 | 123.37155 | 4009 ft | 127 kts | 285° |
| 2026-04-27 13:44 | 11.27277 | 123.36283 | 4014 ft | 126 kts | 284° |
| 2026-04-27 13:44 | 11.27482 | 123.35430 | 4015 ft | 123 kts | 285° |
| 2026-04-27 13:44 | 11.27684 | 123.34586 | 4016 ft | 122 kts | 284° |
| 2026-04-27 13:44 | 11.27887 | 123.33739 | 4009 ft | 121 kts | 285° |
| 2026-04-27 13:45 | 11.28085 | 123.32909 | 4006 ft | 120 kts | 284° |
| 2026-04-27 13:45 | 11.28282 | 123.32091 | 4005 ft | 119 kts | 284° |
| 2026-04-27 13:45 | 11.28477 | 123.31276 | 4018 ft | 118 kts | 284° |
| 2026-04-27 13:45 | 11.28674 | 123.30458 | 4017 ft | 119 kts | 284° |
| 2026-04-27 13:46 | 11.28867 | 123.29650 | 4015 ft | 119 kts | 285° |
| 2026-04-27 13:46 | 11.29063 | 123.28834 | 4007 ft | 118 kts | 285° |
| 2026-04-27 13:46 | 11.29260 | 123.28024 | 4011 ft | 118 kts | 285° |
| 2026-04-27 13:46 | 11.29456 | 123.27217 | 4008 ft | 117 kts | 284° |
| 2026-04-27 13:47 | 11.29651 | 123.26416 | 4006 ft | 116 kts | 283° |
| 2026-04-27 13:47 | 11.29843 | 123.25625 | 4015 ft | 115 kts | 283° |
| 2026-04-27 13:47 | 11.30034 | 123.24832 | 4020 ft | 115 kts | 284° |
| 2026-04-27 13:47 | 11.30224 | 123.24037 | 4020 ft | 116 kts | 284° |
| 2026-04-27 13:48 | 11.30416 | 123.23239 | 4015 ft | 116 kts | 284° |
| 2026-04-27 13:48 | 11.30607 | 123.22445 | 4004 ft | 115 kts | 284° |
| 2026-04-27 13:48 | 11.30794 | 123.21659 | 4003 ft | 113 kts | 284° |
| 2026-04-27 13:48 | 11.30981 | 123.20873 | 4006 ft | 112 kts | 284° |
| 2026-04-27 13:49 | 11.31165 | 123.20098 | 4022 ft | 116 kts | 285° |
| 2026-04-27 13:49 | 11.31360 | 123.19288 | 4022 ft | 119 kts | 284° |
| 2026-04-27 13:49 | 11.31560 | 123.18458 | 4022 ft | 122 kts | 284° |
| 2026-04-27 13:49 | 11.31764 | 123.17615 | 4014 ft | 123 kts | 284° |
| 2026-04-27 13:50 | 11.31966 | 123.16772 | 4007 ft | 122 kts | 284° |
| 2026-04-27 13:50 | 11.32166 | 123.15934 | 4009 ft | 122 kts | 284° |
| 2026-04-27 13:50 | 11.32369 | 123.15084 | 4020 ft | 122 kts | 285° |
| 2026-04-27 13:50 | 11.32566 | 123.14257 | 4019 ft | 122 kts | 285° |
| 2026-04-27 13:51 | 11.32767 | 123.13417 | 4017 ft | 122 kts | 284° |
| 2026-04-27 13:51 | 11.32967 | 123.12577 | 4016 ft | 122 kts | 284° |
| 2026-04-27 13:51 | 11.33169 | 123.11738 | 4021 ft | 122 kts | 284° |
| 2026-04-27 13:51 | 11.33370 | 123.10896 | 4027 ft | 123 kts | 285° |
| 2026-04-27 13:52 | 11.33572 | 123.10048 | 4024 ft | 124 kts | 285° |
| 2026-04-27 13:52 | 11.33778 | 123.09192 | 4020 ft | 124 kts | 285° |
| 2026-04-27 13:52 | 11.33982 | 123.08341 | 4014 ft | 123 kts | 285° |
| 2026-04-27 13:52 | 11.34184 | 123.07493 | 4009 ft | 123 kts | 284° |
| 2026-04-27 13:53 | 11.34590 | 123.05799 | 4013 ft | 123 kts | 285° |
| 2026-04-27 13:53 | 11.34792 | 123.04946 | 4027 ft | 124 kts | 285° |
| 2026-04-27 13:53 | 11.35000 | 123.04074 | 4022 ft | 125 kts | 284° |
| 2026-04-27 13:54 | 11.35203 | 123.03225 | 4002 ft | 124 kts | 284° |
| 2026-04-27 13:54 | 11.35409 | 123.02363 | 4023 ft | 124 kts | 285° |
| 2026-04-27 13:54 | 11.35611 | 123.01519 | 4015 ft | 124 kts | 285° |
| 2026-04-27 13:54 | 11.35814 | 123.00669 | 4022 ft | 124 kts | 285° |
| 2026-04-27 13:55 | 11.36025 | 122.99796 | 4037 ft | 127 kts | 285° |
| 2026-04-27 13:55 | 11.36232 | 122.98917 | 4039 ft | 128 kts | 285° |
| 2026-04-27 13:55 | 11.36493 | 122.98043 | 4053 ft | 130 kts | 301° |
| 2026-04-27 13:55 | 11.37078 | 122.97362 | 4032 ft | 128 kts | 322° |
| 2026-04-27 13:56 | 11.37702 | 122.96739 | 4012 ft | 127 kts | 321° |
| 2026-04-27 13:56 | 11.38337 | 122.96133 | 3990 ft | 123 kts | 323° |
| 2026-04-27 13:56 | 11.38964 | 122.95538 | 4010 ft | 121 kts | 321° |
| 2026-04-27 13:56 | 11.39582 | 122.94951 | 4032 ft | 122 kts | 321° |
| 2026-04-27 13:57 | 11.40208 | 122.94357 | 4025 ft | 123 kts | 322° |
| 2026-04-27 13:57 | 11.40837 | 122.93760 | 4025 ft | 124 kts | 322° |
| 2026-04-27 13:57 | 11.41463 | 122.93162 | 4022 ft | 123 kts | 322° |
| 2026-04-27 13:57 | 11.42088 | 122.92561 | 4020 ft | 123 kts | 322° |
| 2026-04-27 13:58 | 11.42700 | 122.91970 | 4019 ft | 123 kts | 322° |
| 2026-04-27 13:58 | 11.43316 | 122.91375 | 4016 ft | 121 kts | 322° |
| 2026-04-27 13:58 | 11.43926 | 122.90785 | 4015 ft | 120 kts | 322° |
| 2026-04-27 13:58 | 11.44531 | 122.90200 | 4016 ft | 120 kts | 322° |
| 2026-04-27 13:59 | 11.45135 | 122.89616 | 4020 ft | 120 kts | 322° |
| 2026-04-27 13:59 | 11.45740 | 122.89032 | 4026 ft | 120 kts | 322° |
| 2026-04-27 13:59 | 11.46344 | 122.88448 | 4024 ft | 120 kts | 322° |
| 2026-04-27 13:59 | 11.46950 | 122.87864 | 4024 ft | 120 kts | 322° |
| 2026-04-27 14:00 | 11.47556 | 122.87279 | 4026 ft | 120 kts | 322° |
| 2026-04-27 14:00 | 11.48166 | 122.86689 | 4031 ft | 121 kts | 322° |
| 2026-04-27 14:00 | 11.48782 | 122.86096 | 4034 ft | 122 kts | 322° |
| 2026-04-27 14:00 | 11.49401 | 122.85499 | 4033 ft | 123 kts | 322° |
| 2026-04-27 14:01 | 11.50021 | 122.84900 | 4030 ft | 123 kts | 322° |
| 2026-04-27 14:01 | 11.50644 | 122.84299 | 4025 ft | 123 kts | 322° |
| 2026-04-27 14:01 | 11.51264 | 122.83700 | 4021 ft | 122 kts | 322° |
| 2026-04-27 14:01 | 11.51880 | 122.83104 | 4020 ft | 122 kts | 322° |
| 2026-04-27 14:02 | 11.52294 | 122.82703 | 4020 ft | 121 kts | 322° |
| 2026-04-27 14:02 | 11.53104 | 122.81920 | 4021 ft | 121 kts | 322° |
| 2026-04-27 14:02 | 11.53516 | 122.81521 | 4021 ft | 121 kts | 322° |
| 2026-04-27 14:02 | 11.54124 | 122.80933 | 4022 ft | 120 kts | 322° |
| 2026-04-27 14:03 | 11.54730 | 122.80347 | 4021 ft | 120 kts | 322° |
| 2026-04-27 14:03 | 11.55336 | 122.79762 | 4021 ft | 120 kts | 322° |
| 2026-04-27 14:03 | 11.55938 | 122.79180 | 4021 ft | 119 kts | 322° |
| 2026-04-27 14:03 | 11.56539 | 122.78599 | 4023 ft | 119 kts | 322° |
| 2026-04-27 14:04 | 11.57138 | 122.78019 | 4023 ft | 119 kts | 322° |
| 2026-04-27 14:04 | 11.57739 | 122.77437 | 4024 ft | 119 kts | 322° |
| 2026-04-27 14:04 | 11.58341 | 122.76856 | 4024 ft | 119 kts | 323° |
| 2026-04-27 14:04 | 11.58944 | 122.76274 | 4024 ft | 119 kts | 323° |
| 2026-04-27 14:05 | 11.59539 | 122.75682 | 4027 ft | 121 kts | 315° |
| 2026-04-27 14:05 | 11.59872 | 122.74884 | 4032 ft | 125 kts | 284° |
| 2026-04-27 14:05 | 11.60066 | 122.74017 | 4032 ft | 126 kts | 285° |
| 2026-04-27 14:05 | 11.60272 | 122.73148 | 4029 ft | 126 kts | 285° |
| 2026-04-27 14:06 | 11.60477 | 122.72279 | 4020 ft | 126 kts | 285° |
| 2026-04-27 14:06 | 11.60682 | 122.71409 | 4020 ft | 126 kts | 286° |
| 2026-04-27 14:06 | 11.60885 | 122.70540 | 4018 ft | 126 kts | 285° |
| 2026-04-27 14:06 | 11.61088 | 122.69674 | 4019 ft | 125 kts | 285° |
| 2026-04-27 14:07 | 11.61290 | 122.68811 | 4023 ft | 125 kts | 285° |
| 2026-04-27 14:07 | 11.61491 | 122.67953 | 4023 ft | 124 kts | 285° |
| 2026-04-27 14:07 | 11.61689 | 122.67098 | 4022 ft | 124 kts | 285° |
| 2026-04-27 14:07 | 11.61889 | 122.66245 | 4022 ft | 123 kts | 285° |
| 2026-04-27 14:08 | 11.62087 | 122.65395 | 4023 ft | 123 kts | 285° |
| 2026-04-27 14:08 | 11.62285 | 122.64540 | 4025 ft | 124 kts | 285° |
| 2026-04-27 14:08 | 11.62486 | 122.63684 | 4026 ft | 124 kts | 285° |
| 2026-04-27 14:08 | 11.62686 | 122.62828 | 4025 ft | 124 kts | 285° |
| 2026-04-27 14:09 | 11.62885 | 122.61972 | 4023 ft | 124 kts | 285° |
| 2026-04-27 14:09 | 11.63084 | 122.61119 | 4020 ft | 124 kts | 285° |
| 2026-04-27 14:09 | 11.63283 | 122.60265 | 4027 ft | 124 kts | 284° |
| 2026-04-27 14:09 | 11.63483 | 122.59406 | 4027 ft | 125 kts | 285° |
| 2026-04-27 14:10 | 11.63684 | 122.58543 | 4028 ft | 125 kts | 285° |
| 2026-04-27 14:10 | 11.63886 | 122.57679 | 4022 ft | 125 kts | 285° |
| 2026-04-27 14:10 | 11.64085 | 122.56823 | 4018 ft | 124 kts | 285° |
| 2026-04-27 14:10 | 11.64282 | 122.55972 | 4019 ft | 123 kts | 285° |
| 2026-04-27 14:11 | 11.64479 | 122.55128 | 4025 ft | 122 kts | 285° |
| 2026-04-27 14:11 | 11.64674 | 122.54289 | 4032 ft | 121 kts | 285° |
| 2026-04-27 14:11 | 11.64870 | 122.53451 | 4032 ft | 122 kts | 285° |
| 2026-04-27 14:11 | 11.65066 | 122.52610 | 4030 ft | 122 kts | 285° |
| 2026-04-27 14:12 | 11.65261 | 122.51773 | 4024 ft | 121 kts | 285° |
| 2026-04-27 14:12 | 11.65455 | 122.50938 | 4023 ft | 120 kts | 285° |
| 2026-04-27 14:12 | 11.65646 | 122.50111 | 4025 ft | 120 kts | 285° |
| 2026-04-27 14:12 | 11.65839 | 122.49285 | 4031 ft | 120 kts | 285° |
| 2026-04-27 14:13 | 11.66031 | 122.48460 | 4027 ft | 120 kts | 285° |
| 2026-04-27 14:13 | 11.66223 | 122.47634 | 4032 ft | 120 kts | 284° |
| 2026-04-27 14:13 | 11.66415 | 122.46807 | 4029 ft | 120 kts | 285° |
| 2026-04-27 14:13 | 11.66606 | 122.45985 | 4026 ft | 119 kts | 285° |
| 2026-04-27 14:14 | 11.66797 | 122.45165 | 4030 ft | 119 kts | 285° |
| 2026-04-27 14:14 | 11.66987 | 122.44345 | 4025 ft | 118 kts | 285° |
| 2026-04-27 14:14 | 11.67177 | 122.43527 | 4033 ft | 119 kts | 284° |
| 2026-04-27 14:14 | 11.67370 | 122.42702 | 4035 ft | 120 kts | 284° |
| 2026-04-27 14:15 | 11.67564 | 122.41870 | 4033 ft | 121 kts | 285° |
| 2026-04-27 14:15 | 11.67755 | 122.41034 | 4033 ft | 121 kts | 284° |
| 2026-04-27 14:15 | 11.67946 | 122.40197 | 4026 ft | 121 kts | 285° |
| 2026-04-27 14:15 | 11.68135 | 122.39364 | 4028 ft | 120 kts | 285° |
| 2026-04-27 14:16 | 11.68335 | 122.38533 | 4032 ft | 121 kts | 290° |
| 2026-04-27 14:16 | 11.68766 | 122.37815 | 4036 ft | 119 kts | 314° |
| 2026-04-27 14:16 | 11.69284 | 122.37153 | 4034 ft | 120 kts | 314° |
| 2026-04-27 14:16 | 11.69808 | 122.36492 | 4027 ft | 120 kts | 314° |
| 2026-04-27 14:17 | 11.70332 | 122.35832 | 4023 ft | 119 kts | 314° |
| 2026-04-27 14:17 | 11.70849 | 122.35178 | 4024 ft | 118 kts | 314° |
| 2026-04-27 14:17 | 11.71363 | 122.34523 | 4021 ft | 119 kts | 315° |
| 2026-04-27 14:17 | 11.71883 | 122.33864 | 4021 ft | 119 kts | 316° |
| 2026-04-27 14:18 | 11.72400 | 122.33206 | 4020 ft | 119 kts | 315° |
| 2026-04-27 14:18 | 11.72921 | 122.32544 | 4024 ft | 119 kts | 315° |
| 2026-04-27 14:18 | 11.73444 | 122.31882 | 4036 ft | 121 kts | 315° |
| 2026-04-27 14:18 | 11.73972 | 122.31209 | 4040 ft | 122 kts | 316° |
| 2026-04-27 14:19 | 11.74507 | 122.30529 | 4038 ft | 123 kts | 316° |
| 2026-04-27 14:19 | 11.75046 | 122.29845 | 4033 ft | 124 kts | 315° |
| 2026-04-27 14:19 | 11.75586 | 122.29158 | 4027 ft | 124 kts | 315° |
| 2026-04-27 14:19 | 11.76124 | 122.28472 | 4025 ft | 124 kts | 315° |
| 2026-04-27 14:20 | 11.76662 | 122.27786 | 4024 ft | 124 kts | 315° |
| 2026-04-27 14:20 | 11.77201 | 122.27100 | 4020 ft | 124 kts | 315° |
| 2026-04-27 14:20 | 11.77739 | 122.26413 | 4007 ft | 123 kts | 316° |
| 2026-04-27 14:20 | 11.78272 | 122.25733 | 4003 ft | 122 kts | 315° |
| 2026-04-27 14:21 | 11.78798 | 122.25063 | 4010 ft | 120 kts | 315° |
| 2026-04-27 14:21 | 11.79319 | 122.24398 | 4015 ft | 120 kts | 315° |
| 2026-04-27 14:21 | 11.79841 | 122.23734 | 4025 ft | 120 kts | 315° |
| 2026-04-27 14:21 | 11.80367 | 122.23065 | 4028 ft | 121 kts | 315° |
| 2026-04-27 14:22 | 11.80897 | 122.22391 | 4027 ft | 122 kts | 315° |
| 2026-04-27 14:22 | 11.81431 | 122.21712 | 4028 ft | 123 kts | 315° |
| 2026-04-27 14:22 | 11.81965 | 122.21032 | 4024 ft | 123 kts | 315° |
| 2026-04-27 14:22 | 11.82497 | 122.20355 | 4025 ft | 122 kts | 314° |
| 2026-04-27 14:23 | 11.83029 | 122.19677 | 4022 ft | 122 kts | 314° |
| 2026-04-27 14:23 | 11.83562 | 122.18997 | 4022 ft | 123 kts | 315° |
| 2026-04-27 14:23 | 11.84097 | 122.18314 | 4012 ft | 123 kts | 315° |
| 2026-04-27 14:23 | 11.84630 | 122.17636 | 4008 ft | 122 kts | 315° |
| 2026-04-27 14:24 | 11.85157 | 122.16963 | 4010 ft | 121 kts | 315° |
| 2026-04-27 14:24 | 11.85682 | 122.16294 | 4019 ft | 121 kts | 315° |
| 2026-04-27 14:24 | 11.86210 | 122.15620 | 4022 ft | 122 kts | 315° |
| 2026-04-27 14:24 | 11.86743 | 122.14941 | 4017 ft | 123 kts | 315° |
| 2026-04-27 14:25 | 11.87276 | 122.14263 | 4013 ft | 122 kts | 315° |
| 2026-04-27 14:25 | 11.87803 | 122.13592 | 4016 ft | 121 kts | 315° |
| 2026-04-27 14:25 | 11.88325 | 122.12923 | 4023 ft | 121 kts | 314° |
| 2026-04-27 14:25 | 11.88851 | 122.12254 | 4024 ft | 121 kts | 314° |
| 2026-04-27 14:26 | 11.89379 | 122.11581 | 4022 ft | 122 kts | 314° |
| 2026-04-27 14:26 | 11.89908 | 122.10907 | 4019 ft | 122 kts | 314° |
| 2026-04-27 14:26 | 11.90437 | 122.10232 | 4016 ft | 121 kts | 314° |
| 2026-04-27 14:26 | 11.90963 | 122.09561 | 4013 ft | 121 kts | 314° |
| 2026-04-27 14:27 | 11.91486 | 122.08894 | 4010 ft | 120 kts | 314° |
| 2026-04-27 14:27 | 11.92005 | 122.08230 | 4011 ft | 119 kts | 314° |
| 2026-04-27 14:27 | 11.92522 | 122.07571 | 4012 ft | 119 kts | 314° |
| 2026-04-27 14:27 | 11.93035 | 122.06914 | 4012 ft | 118 kts | 315° |
| 2026-04-27 14:28 | 11.93545 | 122.06262 | 4008 ft | 117 kts | 315° |
| 2026-04-27 14:28 | 11.94052 | 122.05615 | 4011 ft | 117 kts | 316° |
| 2026-04-27 14:28 | 11.94561 | 122.04968 | 4022 ft | 117 kts | 316° |
| 2026-04-27 14:28 | 11.95075 | 122.04315 | 4026 ft | 118 kts | 316° |
| 2026-04-27 14:29 | 11.95592 | 122.03657 | 4026 ft | 119 kts | 316° |
| 2026-04-27 14:29 | 11.96112 | 122.02993 | 4020 ft | 120 kts | 316° |
| 2026-04-27 14:29 | 11.96634 | 122.02328 | 4019 ft | 120 kts | 316° |
| 2026-04-27 14:29 | 11.97157 | 122.01659 | 4019 ft | 120 kts | 316° |
| 2026-04-27 14:30 | 11.97679 | 122.00991 | 4018 ft | 120 kts | 316° |
| 2026-04-27 14:30 | 11.98194 | 122.00333 | 4014 ft | 120 kts | 315° |
| 2026-04-27 14:30 | 11.98713 | 121.99671 | 4007 ft | 119 kts | 315° |
| 2026-04-27 14:30 | 11.99194 | 121.99056 | 4009 ft | 117 kts | 315° |
| 2026-04-27 14:31 | 11.99715 | 121.98390 | 4013 ft | 117 kts | 315° |
| 2026-04-27 14:31 | 12.00222 | 121.97743 | 4016 ft | 117 kts | 315° |
| 2026-04-27 14:31 | 12.00730 | 121.97092 | 4014 ft | 117 kts | 315° |
| 2026-04-27 14:31 | 12.01234 | 121.96449 | 4010 ft | 116 kts | 315° |
| 2026-04-27 14:32 | 12.01735 | 121.95810 | 4009 ft | 115 kts | 315° |
| 2026-04-27 14:32 | 12.02233 | 121.95173 | 4010 ft | 114 kts | 315° |
| 2026-04-27 14:32 | 12.02728 | 121.94540 | 4011 ft | 114 kts | 315° |
| 2026-04-27 14:32 | 12.03224 | 121.93909 | 4018 ft | 114 kts | 316° |
| 2026-04-27 14:33 | 12.03716 | 121.93280 | 4026 ft | 116 kts | 317° |
| 2026-04-27 14:33 | 12.04097 | 121.92540 | 4022 ft | 123 kts | 284° |
| 2026-04-27 14:33 | 12.04009 | 121.91681 | 4017 ft | 122 kts | 241° |
| 2026-04-27 14:33 | 12.03500 | 121.90976 | 3928 ft | 127 kts | 227° |
| 2026-04-27 14:34 | 12.02987 | 121.90216 | 3833 ft | 132 kts | 231° |
| 2026-04-27 14:34 | 12.02496 | 121.89457 | 3863 ft | 125 kts | 231° |
| 2026-04-27 14:34 | 12.02019 | 121.88734 | 3882 ft | 121 kts | 231° |
| 2026-04-27 14:34 | 12.01544 | 121.88027 | 3893 ft | 120 kts | 230° |
| 2026-04-27 14:35 | 12.01066 | 121.87326 | 3900 ft | 122 kts | 229° |
| 2026-04-27 14:35 | 12.00569 | 121.86603 | 3908 ft | 126 kts | 229° |
| 2026-04-27 14:35 | 12.00057 | 121.85859 | 3906 ft | 130 kts | 230° |
| 2026-04-27 14:35 | 11.99536 | 121.85098 | 3902 ft | 131 kts | 229° |
| 2026-04-27 14:36 | 11.99013 | 121.84334 | 3896 ft | 131 kts | 230° |
| 2026-04-27 14:36 | 11.98489 | 121.83570 | 3895 ft | 131 kts | 231° |
| 2026-04-27 14:36 | 11.97965 | 121.82808 | 3896 ft | 131 kts | 230° |
| 2026-04-27 14:36 | 11.97443 | 121.82046 | 3898 ft | 131 kts | 230° |
| 2026-04-27 14:37 | 11.96922 | 121.81287 | 3896 ft | 131 kts | 230° |
| 2026-04-27 14:37 | 11.96400 | 121.80529 | 3895 ft | 130 kts | 230° |
| 2026-04-27 14:37 | 11.95881 | 121.79774 | 3895 ft | 130 kts | 230° |
| 2026-04-27 14:37 | 11.95363 | 121.79021 | 3896 ft | 130 kts | 231° |
| 2026-04-27 14:38 | 11.94839 | 121.78262 | 3897 ft | 131 kts | 231° |
| 2026-04-27 14:38 | 11.94316 | 121.77502 | 3899 ft | 131 kts | 231° |
| 2026-04-27 14:38 | 11.93791 | 121.76737 | 3899 ft | 132 kts | 231° |
| 2026-04-27 14:38 | 11.93264 | 121.75972 | 3898 ft | 132 kts | 231° |
| 2026-04-27 14:39 | 11.92735 | 121.75203 | 3899 ft | 132 kts | 231° |
| 2026-04-27 14:39 | 11.92206 | 121.74433 | 3897 ft | 132 kts | 231° |
| 2026-04-27 14:39 | 11.91655 | 121.73687 | 3893 ft | 130 kts | 218° |
| 2026-04-27 14:39 | 11.90889 | 121.73319 | 3892 ft | 118 kts | 178° |
| 2026-04-27 14:40 | 11.90120 | 121.73429 | 3900 ft | 108 kts | 145° |
| 2026-04-27 14:40 | 11.89468 | 121.73796 | 3905 ft | 108 kts | 143° |
| 2026-04-27 14:40 | 11.88786 | 121.74136 | 3904 ft | 110 kts | 144° |
| 2026-04-27 14:40 | 11.88097 | 121.74477 | 3904 ft | 110 kts | 144° |
| 2026-04-27 14:41 | 11.87405 | 121.74825 | 3900 ft | 111 kts | 144° |
| 2026-04-27 14:41 | 11.86716 | 121.75176 | 3899 ft | 111 kts | 143° |
| 2026-04-27 14:41 | 11.86029 | 121.75529 | 3898 ft | 111 kts | 143° |
| 2026-04-27 14:41 | 11.85342 | 121.75883 | 3898 ft | 111 kts | 143° |
| 2026-04-27 14:42 | 11.84656 | 121.76239 | 3896 ft | 111 kts | 143° |
| 2026-04-27 14:42 | 11.84191 | 121.76478 | 3888 ft | 110 kts | 145° |
| 2026-04-27 14:42 | 11.83536 | 121.77145 | 3883 ft | 98 kts | 103° |
| 2026-04-27 14:42 | 11.83519 | 121.77605 | 3895 ft | 97 kts | 80° |
| 2026-04-27 14:43 | 11.83812 | 121.78227 | 3893 ft | 98 kts | 66° |
| 2026-04-27 14:43 | 11.84142 | 121.78827 | 3890 ft | 96 kts | 67° |
| 2026-04-27 14:43 | 11.84443 | 121.79418 | 3851 ft | 92 kts | 67° |
| 2026-04-27 14:43 | 11.84727 | 121.80003 | 3722 ft | 95 kts | 69° |
| 2026-04-27 14:44 | 11.85030 | 121.80621 | 3585 ft | 97 kts | 68° |
| 2026-04-27 14:44 | 11.85340 | 121.81237 | 3431 ft | 98 kts | 67° |
| 2026-04-27 14:44 | 11.85651 | 121.81852 | 3295 ft | 99 kts | 68° |
| 2026-04-27 14:44 | 11.85967 | 121.82478 | 3149 ft | 99 kts | 68° |
| 2026-04-27 14:45 | 11.86282 | 121.83106 | 3001 ft | 99 kts | 67° |
| 2026-04-27 14:45 | 11.86598 | 121.83736 | 2855 ft | 100 kts | 68° |
| 2026-04-27 14:45 | 11.86916 | 121.84370 | 2711 ft | 101 kts | 68° |
| 2026-04-27 14:45 | 11.87236 | 121.85005 | 2565 ft | 101 kts | 67° |
| 2026-04-27 14:46 | 11.87545 | 121.85616 | 2552 ft | 91 kts | 66° |
| 2026-04-27 14:46 | 11.87821 | 121.86161 | 2564 ft | 84 kts | 66° |
| 2026-04-27 14:46 | 11.88139 | 121.86773 | 2185 ft | 108 kts | 64° |
| 2026-04-27 14:46 | 11.88504 | 121.87470 | 1885 ft | 113 kts | 64° |
| 2026-04-27 14:47 | 11.88855 | 121.88191 | 1621 ft | 113 kts | 66° |
| 2026-04-27 14:47 | 11.89249 | 121.88895 | 1367 ft | 116 kts | 60° |
| 2026-04-27 14:47 | 11.89629 | 121.89642 | 1121 ft | 116 kts | 64° |
| 2026-04-27 14:47 | 11.89979 | 121.90377 | 850 ft | 117 kts | 65° |
| 2026-04-27 14:48 | 11.90295 | 121.91101 | 616 ft | 103 kts | 65° |
| 2026-04-27 14:48 | 11.90976 | 121.92441 | 378 ft | 93 kts | 60° |
| 2026-04-27 14:48 | 11.91282 | 121.92956 | 313 ft | 80 kts | 65° |
| 2026-04-27 14:49 | 11.91519 | 121.93484 | 248 ft | 84 kts | 68° |
| 2026-04-27 14:49 | 11.91766 | 121.94013 | 254 ft | 80 kts | 66° |
| 2026-04-27 14:49 | 11.92012 | 121.94503 | 160 ft | 77 kts | 65° |
| 2026-04-27 14:49 | 11.92252 | 121.94985 | 19 ft | 72 kts | 65° |
| 2026-04-27 14:50 | 11.92434 | 121.95354 | 2 ft | 45 kts | 62° |
| 2026-04-27 14:50 | 11.92536 | 121.95573 | 6 ft | 23 kts | 73° |
| 2026-04-27 14:50 | 11.92550 | 121.95568 | 6 ft | 11 kts | 245° |
| 2026-04-27 14:50 | 11.92514 | 121.95500 | 4 ft | 11 kts | 245° |
| 2026-04-27 14:51 | 11.92480 | 121.95433 | 4 ft | 10 kts | 240° |
| 2026-04-27 14:51 | 11.92470 | 121.95387 | 0 ft | 4 kts | 303° |
| 2026-04-27 14:51 | 11.92474 | 121.95378 | 1 ft | 0 kts | 287° |
| 2026-04-27 14:51 | 11.92476 | 121.95371 | 2 ft | 5 kts | 285° |
| 2026-04-27 14:52 | 11.92492 | 121.95339 | 3 ft | 5 kts | 261° |
| 2026-04-27 14:52 | 11.92484 | 121.95334 | 3 ft | 0 kts | 156° |